Time;durP1;ratioP1;P1;durP2;ratioP2;P2;SDS_P1;SDS_P2;PMS_P1;PMS_P2;Temp;Humidity;BMP_temperature;BMP_pressure;BME280_temperature;BME280_humidity;BME280_pressure;Samples;Min_cycle;Max_cycle;Signal;HPM_P1;HPM_P2
2022/03/10 00:00:07;;;;;;;0.30;0.30;;;;;;;-2.08;83.30;101126.38;4998850;28;20815;-49
2022/03/10 00:02:36;;;;;;;0.20;0.10;;;;;;;-2.15;83.71;101123.53;4998608;28;20961;-50
2022/03/10 00:05:04;;;;;;;0.40;0.40;;;;;;;-1.93;83.23;101123.44;5014238;28;20456;-50
2022/03/10 00:07:30;;;;;;;0.20;0.10;;;;;;;-2.01;83.92;101119.69;5014894;28;21024;-50
2022/03/10 00:09:57;;;;;;;0.20;0.10;;;;;;;-1.96;83.34;101123.34;5001356;28;20962;-49
2022/03/10 00:12:24;;;;;;;0.30;0.20;;;;;;;-2.00;83.74;101133.59;5009432;28;20476;-50
2022/03/10 00:14:50;;;;;;;0.20;0.10;;;;;;;-2.01;83.76;101134.44;5015257;28;21015;-50
2022/03/10 00:17:17;;;;;;;0.20;0.10;;;;;;;-2.13;83.81;101143.56;5009418;28;20955;-50
2022/03/10 00:19:44;;;;;;;0.20;0.10;;;;;;;-2.03;83.75;101142.19;5015113;28;20455;-50
2022/03/10 00:22:11;;;;;;;0.20;0.10;;;;;;;-1.92;82.85;101142.56;5014830;28;20523;-50
2022/03/10 00:24:39;;;;;;;0.20;0.10;;;;;;;-1.84;82.89;101138.50;5015021;28;20459;-50
2022/03/10 00:27:06;;;;;;;0.20;0.13;;;;;;;-1.85;82.09;101136.75;5014572;28;21024;-50
2022/03/10 00:29:32;;;;;;;0.60;0.53;;;;;;;-2.05;82.70;101138.66;5014736;28;21031;-50
2022/03/10 00:31:59;;;;;;;5.60;1.90;;;;;;;-2.11;83.54;101128.88;5014609;28;20499;-50
2022/03/10 00:34:26;;;;;;;0.20;0.10;;;;;;;-2.34;83.21;101134.09;5010234;28;20453;-50
2022/03/10 00:36:53;;;;;;;0.20;0.10;;;;;;;-2.36;83.87;101139.22;5010402;28;20455;-50
2022/03/10 00:39:19;;;;;;;0.20;0.10;;;;;;;-2.32;84.19;101135.06;5014495;28;20489;-49
2022/03/10 00:41:47;;;;;;;0.20;0.10;;;;;;;-2.23;83.74;101141.47;5014518;28;20476;-50
2022/03/10 00:44:14;;;;;;;0.20;0.10;;;;;;;-2.21;83.36;101139.78;5014674;28;20444;-50
2022/03/10 00:46:40;;;;;;;0.20;0.10;;;;;;;-2.24;82.73;101136.19;5012252;28;21005;-50
2022/03/10 00:49:07;;;;;;;0.20;0.10;;;;;;;-2.49;83.71;101143.09;5004148;28;20929;-50
2022/03/10 00:51:34;;;;;;;0.20;0.20;;;;;;;-2.54;83.87;101142.03;5014164;28;20993;-49
2022/03/10 00:54:00;;;;;;;0.20;0.10;;;;;;;-2.46;84.16;101145.84;5013670;28;20503;-50
2022/03/10 00:56:27;;;;;;;0.20;0.10;;;;;;;-2.36;84.14;101152.25;5014127;28;20510;-50
2022/03/10 00:58:53;;;;;;;0.30;0.30;;;;;;;-2.41;83.91;101144.28;5014122;28;20960;-50
2022/03/10 01:01:20;;;;;;;0.20;0.10;;;;;;;-2.59;84.23;101143.59;5013975;28;20881;-50
2022/03/10 01:03:47;;;;;;;0.30;0.30;;;;;;;-2.57;84.41;101143.66;5014050;28;20815;-50
2022/03/10 01:06:13;;;;;;;0.20;0.10;;;;;;;-2.72;84.79;101151.75;5013964;28;20832;-50
2022/03/10 01:08:40;;;;;;;0.40;0.40;;;;;;;-2.67;85.10;101149.31;5008438;28;20458;-50
2022/03/10 01:11:06;;;;;;;0.20;0.10;;;;;;;-2.69;84.88;101141.47;5006651;28;20542;-50
2022/03/10 01:13:33;;;;;;;0.20;0.10;;;;;;;-2.82;84.88;101142.72;5013996;28;20449;-50
2022/03/10 01:16:00;;;;;;;0.40;0.40;;;;;;;-2.82;85.79;101145.31;5014013;28;20592;-50
2022/03/10 01:18:26;;;;;;;0.30;0.30;;;;;;;-2.66;84.70;101145.91;5003365;28;20449;-50
2022/03/10 01:20:53;;;;;;;0.50;0.50;;;;;;;-2.73;85.51;101142.19;5013774;28;20479;-50
2022/03/10 01:23:20;;;;;;;0.20;0.20;;;;;;;-2.76;85.29;101145.53;5013551;28;20502;-50
2022/03/10 01:25:49;;;;;;;0.20;0.10;;;;;;;-2.66;85.09;101145.91;5013448;28;20965;-50
2022/03/10 01:28:16;;;;;;;0.20;0.10;;;;;;;-2.80;84.07;101143.66;5013744;28;20492;-49
2022/03/10 01:30:42;;;;;;;0.20;0.10;;;;;;;-2.82;85.25;101145.31;5013298;28;20468;-50
2022/03/10 01:33:09;;;;;;;0.20;0.10;;;;;;;-2.72;84.59;101152.66;5013640;28;20489;-49
2022/03/10 01:35:36;;;;;;;1.27;1.17;;;;;;;-2.96;85.35;101156.88;5004152;28;20446;-50
2022/03/10 01:38:03;;;;;;;0.20;0.20;;;;;;;-2.75;85.63;101151.63;5013346;28;20495;-50
2022/03/10 01:40:29;;;;;;;0.20;0.10;;;;;;;-2.76;84.54;101149.84;5013539;28;20989;-50
2022/03/10 01:42:56;;;;;;;1.80;1.80;;;;;;;-2.85;85.00;101162.50;5013495;28;20472;-50
2022/03/10 01:45:23;;;;;;;0.23;0.17;;;;;;;-2.96;85.17;101151.69;5013207;28;20510;-50
2022/03/10 01:47:49;;;;;;;0.20;0.10;;;;;;;-2.90;85.07;101149.31;5009800;28;20554;-50
2022/03/10 01:50:16;;;;;;;0.30;0.30;;;;;;;-2.91;85.19;101146.66;5013008;28;20452;-49
2022/03/10 01:52:44;;;;;;;0.20;0.10;;;;;;;-3.09;85.38;101133.81;5013426;28;20460;-50
2022/03/10 01:55:12;;;;;;;0.20;0.10;;;;;;;-3.16;86.72;101139.59;5013214;28;20482;-50
2022/03/10 01:57:41;;;;;;;0.30;0.20;;;;;;;-3.06;86.46;101144.34;5013297;28;20503;-50
2022/03/10 02:00:09;;;;;;;0.20;0.10;;;;;;;-3.13;86.57;101144.94;5012977;28;20480;-50
2022/03/10 02:02:36;;;;;;;0.20;0.10;;;;;;;-3.29;86.83;101140.78;5012614;28;20502;-50
2022/03/10 02:05:03;;;;;;;0.77;0.73;;;;;;;-3.26;88.04;101140.94;5011967;28;20452;-49
2022/03/10 02:10:18;;;;;;;0.87;0.80;;;;;;;-3.18;87.05;101144.72;5006794;28;20519;-50
2022/03/10 02:12:46;;;;;;;0.20;0.10;;;;;;;-3.10;87.05;101145.94;5012839;28;20487;-50
2022/03/10 02:18:08;;;;;;;0.20;0.20;;;;;;;-2.92;85.82;101150.97;4997349;28;20456;-49
2022/03/10 02:20:37;;;;;;;0.20;0.10;;;;;;;-3.15;86.58;101152.66;5012753;28;20520;-50
2022/03/10 02:23:05;;;;;;;0.53;0.53;;;;;;;-3.19;86.97;101149.88;5012679;28;20984;-50
2022/03/10 02:25:33;;;;;;;0.20;0.10;;;;;;;-3.18;87.20;101154.22;5012631;28;20449;-50
2022/03/10 02:28:00;;;;;;;0.20;0.10;;;;;;;-3.17;87.42;101150.81;5011341;28;21048;-50
2022/03/10 02:30:30;;;;;;;0.20;0.10;;;;;;;-3.21;87.46;101160.19;5012625;28;20523;-50
2022/03/10 02:32:58;;;;;;;3.80;0.97;;;;;;;-3.17;87.63;101153.41;5012730;28;20488;-50
2022/03/10 02:35:25;;;;;;;0.20;0.10;;;;;;;-3.30;87.61;101154.63;5012534;28;20481;-50
2022/03/10 02:37:53;;;;;;;0.20;0.20;;;;;;;-3.25;88.62;101147.91;5012636;28;20511;-49
2022/03/10 02:40:19;;;;;;;0.20;0.10;;;;;;;-3.13;88.55;101151.00;5012295;28;20503;-50
2022/03/10 02:42:46;;;;;;;0.20;0.10;;;;;;;-3.10;87.48;101147.66;5012738;28;20476;-49
2022/03/10 02:45:13;;;;;;;0.20;0.10;;;;;;;-3.09;87.80;101141.63;5012565;28;20869;-50
2022/03/10 02:47:40;;;;;;;0.20;0.10;;;;;;;-3.18;86.75;101142.13;5002334;28;20485;-49
2022/03/10 02:50:07;;;;;;;3.17;1.23;;;;;;;-3.31;87.46;101139.84;5012243;28;20507;-50
2022/03/10 02:52:35;;;;;;;0.20;0.10;;;;;;;-3.25;87.56;101142.72;5012478;28;20456;-50
2022/03/10 02:55:06;;;;;;;0.20;0.10;;;;;;;-3.35;87.92;101149.25;4986738;28;20452;-50
2022/03/10 02:57:33;;;;;;;0.20;0.10;;;;;;;-3.26;88.88;101155.66;5011252;28;20441;-50
2022/03/10 03:00:00;;;;;;;0.20;0.10;;;;;;;-3.28;87.11;101147.81;5012533;28;20673;-50
2022/03/10 03:02:27;;;;;;;0.40;0.40;;;;;;;-3.24;87.47;101154.00;5011681;28;20457;-50
2022/03/10 03:04:54;;;;;;;0.30;0.23;;;;;;;-3.25;88.01;101153.13;5012365;28;20449;-50
2022/03/10 03:07:20;;;;;;;0.47;0.47;;;;;;;-3.39;87.35;101155.16;5011948;28;20542;-50
2022/03/10 03:09:47;;;;;;;0.20;0.10;;;;;;;-3.32;88.06;101144.16;5005954;28;20981;-49
2022/03/10 03:12:14;;;;;;;0.20;0.20;;;;;;;-3.37;88.41;101144.81;5011960;28;20530;-50
2022/03/10 03:14:43;;;;;;;0.20;0.10;;;;;;;-3.28;87.90;101150.41;5012400;28;20527;-49
2022/03/10 03:17:10;;;;;;;0.20;0.10;;;;;;;-3.12;87.39;101154.50;5010882;28;20930;-50
2022/03/10 03:19:37;;;;;;;0.30;0.20;;;;;;;-3.32;86.91;101162.34;5016150;28;20448;-50
2022/03/10 03:22:04;;;;;;;0.30;0.20;;;;;;;-3.38;87.42;101162.13;5015770;28;20477;-50
2022/03/10 03:24:31;;;;;;;1.03;0.93;;;;;;;-3.23;87.26;101160.97;5016150;28;20465;-49
2022/03/10 03:26:58;;;;;;;0.20;0.10;;;;;;;-3.33;87.40;101170.09;5015850;28;20506;-50
2022/03/10 03:29:25;;;;;;;0.20;0.10;;;;;;;-3.38;87.54;101161.22;5016163;28;20452;-49
2022/03/10 03:31:52;;;;;;;0.30;0.10;;;;;;;-3.49;87.11;101154.69;5016485;28;20483;-49
2022/03/10 03:34:19;;;;;;;0.20;0.10;;;;;;;-3.55;88.29;101160.53;5015864;28;20453;-50
2022/03/10 03:36:45;;;;;;;2.87;2.77;;;;;;;-3.65;88.06;101155.78;5015587;28;20452;-50
2022/03/10 03:39:13;;;;;;;0.20;0.10;;;;;;;-3.69;88.81;101164.25;5015921;28;20444;-50
2022/03/10 03:41:40;;;;;;;0.20;0.10;;;;;;;-3.65;88.34;101166.16;5015437;28;20473;-50
2022/03/10 03:44:10;;;;;;;0.20;0.20;;;;;;;-3.78;89.32;101169.06;5015664;28;21073;-50
2022/03/10 03:46:37;;;;;;;0.77;0.77;;;;;;;-3.71;89.44;101169.34;5014005;28;20480;-50
2022/03/10 03:49:07;;;;;;;0.20;0.10;;;;;;;-3.77;88.96;101163.91;5006949;28;20500;-49
2022/03/10 03:51:35;;;;;;;0.20;0.10;;;;;;;-3.74;88.50;101166.63;5015518;28;20472;-50
2022/03/10 03:54:02;;;;;;;0.20;0.10;;;;;;;-3.90;89.71;101164.22;5015523;28;20452;-50
2022/03/10 03:56:29;;;;;;;0.20;0.10;;;;;;;-3.71;89.02;101161.56;5015503;28;20810;-50
2022/03/10 03:58:55;;;;;;;0.20;0.10;;;;;;;-3.65;88.58;101160.97;5015297;28;20481;-49
2022/03/10 04:01:23;;;;;;;0.20;0.10;;;;;;;-3.78;89.32;101169.06;5009005;28;20465;-50
2022/03/10 04:03:50;;;;;;;1.17;0.67;;;;;;;-3.80;89.05;101163.78;5008154;28;20453;-50
2022/03/10 04:06:17;;;;;;;0.20;0.10;;;;;;;-3.78;88.68;101158.66;5015424;28;20460;-49
2022/03/10 04:08:44;;;;;;;1.90;1.73;;;;;;;-3.68;88.98;101163.44;5009371;28;20496;-49
2022/03/10 04:11:10;;;;;;;0.20;0.10;;;;;;;-3.79;88.67;101162.97;4976728;28;21074;-51
2022/03/10 04:13:37;;;;;;;0.20;0.20;;;;;;;-3.83;88.12;101162.78;5002232;28;20448;-50
2022/03/10 04:16:05;;;;;;;0.20;0.10;;;;;;;-3.95;88.72;101170.91;5014924;28;20479;-51
2022/03/10 04:18:34;;;;;;;2.10;2.10;;;;;;;-3.99;88.92;101180.25;5011548;28;20529;-51
2022/03/10 04:21:02;;;;;;;0.20;0.10;;;;;;;-4.01;89.19;101176.72;5015241;28;20504;-51
2022/03/10 04:23:28;;;;;;;0.20;0.10;;;;;;;-3.98;89.17;101176.84;5014911;28;20483;-52
2022/03/10 04:25:55;;;;;;;0.20;0.10;;;;;;;-3.97;89.17;101178.66;5014793;28;20452;-51
2022/03/10 04:28:22;;;;;;;0.20;0.10;;;;;;;-4.00;88.71;101186.28;5013687;28;20492;-52
2022/03/10 04:30:49;;;;;;;0.20;0.10;;;;;;;-4.09;89.49;101182.41;5014588;28;20473;-51
2022/03/10 04:33:17;;;;;;;0.30;0.20;;;;;;;-3.96;89.24;101172.63;5014732;28;20448;-51
2022/03/10 04:35:44;;;;;;;0.20;0.10;;;;;;;-4.06;89.54;101183.41;5014798;28;20973;-51
2022/03/10 04:38:11;;;;;;;0.20;0.10;;;;;;;-4.06;89.52;101180.81;5014566;28;20519;-51
2022/03/10 04:40:37;;;;;;;0.20;0.10;;;;;;;-4.24;89.31;101182.59;5014547;28;20506;-51
2022/03/10 04:43:04;;;;;;;0.50;0.50;;;;;;;-4.14;89.55;101183.88;5014373;28;20448;-51
2022/03/10 04:45:31;;;;;;;0.20;0.10;;;;;;;-4.28;89.35;101178.06;5014427;28;20445;-51
2022/03/10 04:47:58;;;;;;;1.70;1.70;;;;;;;-4.14;89.66;101173.50;5003781;28;20489;-52
2022/03/10 04:50:25;;;;;;;0.20;0.10;;;;;;;-4.00;88.87;101175.00;5014292;28;20469;-51
2022/03/10 04:52:52;;;;;;;0.20;0.10;;;;;;;-4.20;89.64;101172.44;5014266;28;20448;-52
2022/03/10 04:55:18;;;;;;;0.20;0.10;;;;;;;-4.21;89.16;101162.88;5014845;28;20453;-51
2022/03/10 04:57:50;;;;;;;0.20;0.10;;;;;;;-4.29;89.53;101174.59;5014111;28;20444;-52
2022/03/10 05:00:18;;;;;;;0.20;0.10;;;;;;;-4.23;89.90;101177.47;5014158;28;20453;-52
2022/03/10 05:02:49;;;;;;;0.20;0.10;;;;;;;-4.01;89.22;101186.22;5013581;28;20480;-51
2022/03/10 05:05:17;;;;;;;0.20;0.10;;;;;;;-4.15;89.51;101190.78;5014127;28;20499;-51
2022/03/10 05:07:45;;;;;;;0.20;0.10;;;;;;;-4.33;89.92;101195.16;5013999;28;20554;-52
2022/03/10 05:10:13;;;;;;;0.20;0.10;;;;;;;-4.32;90.23;101192.63;5007716;28;20862;-51
2022/03/10 05:13:02;;;;;;;0.20;0.10;;;;;;;-4.22;88.92;101188.75;5013887;28;20449;-51
2022/03/10 05:15:31;;;;;;;0.20;0.10;;;;;;;-4.13;89.03;101202.13;5013881;28;20445;-51
2022/03/10 05:18:03;;;;;;;0.20;0.20;;;;;;;-4.32;90.12;101195.22;5010575;28;20974;-51
2022/03/10 05:20:31;;;;;;;0.40;0.40;;;;;;;-4.31;90.39;101188.31;5013694;28;20464;-51
2022/03/10 05:23:00;;;;;;;0.20;0.10;;;;;;;-3.58;90.00;101186.34;5013718;28;20460;-51
2022/03/10 05:25:39;;;;;;;0.20;0.10;;;;;;;-3.26;86.52;101186.84;5013820;28;20452;-51
2022/03/10 05:28:07;;;;;;;0.20;0.10;;;;;;;-3.52;87.07;101193.53;5013696;28;20541;-51
2022/03/10 05:30:36;;;;;;;0.20;0.10;;;;;;;-3.78;87.31;101187.22;4988541;28;20990;-51
2022/03/10 05:33:03;;;;;;;0.20;0.10;;;;;;;-3.95;88.19;101187.38;5013314;28;20961;-51
2022/03/10 05:35:30;;;;;;;0.20;0.10;;;;;;;-3.95;87.99;101189.09;5013578;28;20448;-51
2022/03/10 05:37:57;;;;;;;0.20;0.10;;;;;;;-4.11;88.61;101195.31;5013392;28;20991;-51
2022/03/10 05:40:24;;;;;;;0.20;0.10;;;;;;;-4.21;89.43;101195.72;5013398;28;20969;-51
2022/03/10 05:42:55;;;;;;;0.20;0.10;;;;;;;-4.28;90.15;101196.25;5013514;28;20453;-50
2022/03/10 05:45:22;;;;;;;0.20;0.10;;;;;;;-4.42;90.37;101195.59;5013495;28;20452;-51
2022/03/10 05:47:51;;;;;;;0.20;0.10;;;;;;;-4.43;90.62;101208.50;5003169;28;20485;-51
2022/03/10 05:50:18;;;;;;;1.93;0.83;;;;;;;-4.27;91.26;101198.91;5013463;28;20456;-51
2022/03/10 05:52:45;;;;;;;0.20;0.10;;;;;;;-4.32;90.63;101200.41;5013016;28;20503;-51
2022/03/10 05:55:13;;;;;;;0.20;0.10;;;;;;;-4.38;90.31;101197.56;5013324;28;20451;-51
2022/03/10 05:57:40;;;;;;;0.20;0.17;;;;;;;-4.27;90.76;101209.28;5013084;28;20475;-51
2022/03/10 06:00:09;;;;;;;0.20;0.10;;;;;;;-4.22;91.38;101210.41;5013031;28;20456;-51
2022/03/10 06:02:36;;;;;;;0.20;0.10;;;;;;;-4.20;91.65;101218.25;5012552;28;20473;-51
2022/03/10 06:05:04;;;;;;;0.20;0.10;;;;;;;-4.00;91.71;101213.94;5013219;28;20460;-51
2022/03/10 06:07:31;;;;;;;0.20;0.10;;;;;;;-4.03;91.55;101221.59;5012738;28;21162;-52
2022/03/10 06:09:58;;;;;;;0.20;0.10;;;;;;;-3.95;90.62;101215.94;5006641;28;20452;-52
2022/03/10 06:12:27;;;;;;;0.20;0.10;;;;;;;-3.83;90.62;101218.19;5012664;28;20512;-52
2022/03/10 06:14:58;;;;;;;0.20;0.10;;;;;;;-3.87;90.35;101214.56;5012806;28;20453;-52
2022/03/10 06:17:26;;;;;;;0.20;0.10;;;;;;;-3.90;91.21;101214.44;5009072;28;20483;-52
2022/03/10 06:19:52;;;;;;;0.20;0.10;;;;;;;-3.91;91.04;101219.56;5012984;28;20453;-52
2022/03/10 06:22:21;;;;;;;0.20;0.20;;;;;;;-3.77;91.10;101217.56;5012687;28;20497;-52
2022/03/10 06:24:48;;;;;;;0.47;0.47;;;;;;;-3.67;90.49;101227.56;5013352;28;20452;-52
2022/03/10 06:27:17;;;;;;;0.40;0.40;;;;;;;-3.55;90.20;101235.88;5012613;28;20449;-52
2022/03/10 06:29:45;;;;;;;0.20;0.10;;;;;;;-3.45;89.42;101230.22;5012602;28;20550;-51
2022/03/10 06:32:12;;;;;;;0.30;0.27;;;;;;;-3.43;89.99;101235.50;5012552;28;20473;-52
2022/03/10 06:34:39;;;;;;;0.30;0.20;;;;;;;-3.38;90.49;101240.06;5011498;28;20953;-52
2022/03/10 06:37:06;;;;;;;2.20;2.00;;;;;;;-3.26;90.03;101246.63;5012749;28;20453;-52
2022/03/10 06:39:33;;;;;;;0.20;0.10;;;;;;;-2.98;88.74;101244.34;5012926;28;20448;-51
2022/03/10 06:42:02;;;;;;;0.20;0.10;;;;;;;-2.86;88.53;101243.97;5012549;28;20488;-51
2022/03/10 06:44:30;;;;;;;0.33;0.33;;;;;;;-2.82;88.47;101246.75;5011701;28;20511;-50
2022/03/10 06:46:56;;;;;;;0.20;0.10;;;;;;;-2.81;89.00;101255.44;5008585;28;20519;-51
2022/03/10 06:49:23;;;;;;;0.20;0.10;;;;;;;-2.73;88.50;101256.66;5006569;28;20496;-51
2022/03/10 06:51:50;;;;;;;0.20;0.10;;;;;;;-2.65;88.97;101255.22;5017729;28;20465;-51
2022/03/10 06:54:20;;;;;;;0.20;0.10;;;;;;;-2.54;88.41;101258.25;5018799;28;20448;-52
2022/03/10 06:56:47;;;;;;;0.37;0.37;;;;;;;-2.33;87.89;101253.91;5018724;28;20560;-52
2022/03/10 06:59:13;;;;;;;0.20;0.10;;;;;;;-2.39;88.13;101253.66;5018893;28;20472;-52
2022/03/10 07:01:40;;;;;;;0.20;0.10;;;;;;;-2.23;88.32;101261.22;5018626;28;20471;-51
2022/03/10 07:04:07;;;;;;;0.20;0.20;;;;;;;-2.17;87.92;101253.66;5018835;28;20882;-52
2022/03/10 07:06:33;;;;;;;0.20;0.10;;;;;;;-2.10;87.99;101258.25;5018804;28;20491;-51
2022/03/10 07:09:01;;;;;;;0.33;0.33;;;;;;;-1.86;87.82;101254.81;5012349;28;20616;-52
2022/03/10 07:11:27;;;;;;;0.20;0.10;;;;;;;-1.64;86.07;101264.31;5018626;28;20561;-52
2022/03/10 07:13:54;;;;;;;0.53;0.53;;;;;;;-1.77;86.92;101244.75;5018516;28;20942;-52
2022/03/10 07:16:21;;;;;;;0.30;0.30;;;;;;;-1.64;86.38;101256.50;5018741;28;20929;-51
2022/03/10 07:18:50;;;;;;;0.20;0.20;;;;;;;-1.40;85.12;101254.75;5015318;28;20453;-51
2022/03/10 07:21:21;;;;;;;0.20;0.10;;;;;;;-1.45;85.84;101256.31;5018708;28;20468;-51
2022/03/10 07:23:48;;;;;;;0.37;0.37;;;;;;;-1.29;85.69;101253.41;5018467;28;20472;-51
2022/03/10 07:26:15;;;;;;;0.20;0.10;;;;;;;-1.35;85.63;101258.41;5018547;28;20515;-51
2022/03/10 07:28:43;;;;;;;0.50;0.50;;;;;;;-1.21;84.52;101258.91;5018431;28;20542;-51
2022/03/10 07:31:10;;;;;;;45.93;1.80;;;;;;;-1.06;84.56;101259.41;5018558;28;20471;-51
2022/03/10 07:33:36;;;;;;;0.20;0.10;;;;;;;-1.02;84.35;101258.66;5018926;28;20857;-52
2022/03/10 07:36:03;;;;;;;0.30;0.30;;;;;;;-1.00;84.32;101258.72;5018461;28;20456;-52
2022/03/10 07:38:30;;;;;;;0.20;0.10;;;;;;;-0.84;84.38;101265.34;5018540;28;20526;-52
2022/03/10 07:40:58;;;;;;;0.20;0.10;;;;;;;-0.66;83.38;101260.75;5018784;28;20472;-52
2022/03/10 07:43:24;;;;;;;0.20;0.10;;;;;;;-0.39;83.02;101261.59;5018395;28;20455;-51
2022/03/10 07:45:51;;;;;;;1.13;1.03;;;;;;;-0.48;83.31;101248.25;5018593;28;20463;-52
2022/03/10 07:48:18;;;;;;;0.20;0.10;;;;;;;-0.21;82.51;101257.78;5009061;28;20541;-51
2022/03/10 07:50:45;;;;;;;2.40;1.50;;;;;;;-0.02;81.53;101260.09;5018290;28;20888;-51
2022/03/10 07:53:11;;;;;;;0.20;0.10;;;;;;;0.15;81.26;101248.44;5018830;28;20452;-51
2022/03/10 07:55:38;;;;;;;2.40;1.70;;;;;;;0.06;82.05;101250.78;5018581;28;20452;-50
2022/03/10 07:58:05;;;;;;;0.60;0.60;;;;;;;0.34;80.97;101248.94;5018304;28;20491;-52
2022/03/10 08:00:32;;;;;;;0.20;0.10;;;;;;;0.40;80.83;101246.50;5018456;28;20500;-52
2022/03/10 08:02:59;;;;;;;0.20;0.20;;;;;;;0.42;81.83;101252.69;5015762;28;20547;-52
2022/03/10 08:05:26;;;;;;;0.27;0.17;;;;;;;0.42;81.90;101240.50;5015108;28;20872;-52
2022/03/10 08:07:52;;;;;;;0.20;0.10;;;;;;;0.62;80.30;101237.53;5014969;28;20766;-52
2022/03/10 08:10:19;;;;;;;0.20;0.10;;;;;;;0.92;78.88;101235.69;5008367;28;21008;-52
2022/03/10 08:12:45;;;;;;;0.30;0.20;;;;;;;1.13;78.35;101232.75;5015141;28;20476;-52
2022/03/10 08:15:18;;;;;;;0.20;0.10;;;;;;;1.13;77.14;101233.63;5015122;28;20449;-52
2022/03/10 08:17:45;;;;;;;5.90;0.90;;;;;;;1.27;77.73;101235.72;5010637;28;20507;-51
2022/03/10 08:20:12;;;;;;;0.43;0.43;;;;;;;1.48;76.67;101236.19;5014595;28;20498;-52
2022/03/10 08:22:39;;;;;;;0.20;0.20;;;;;;;1.63;75.74;101227.81;5014968;28;20950;-52
2022/03/10 08:25:06;;;;;;;2.87;0.63;;;;;;;1.82;75.48;101230.00;5015098;28;20459;-51
2022/03/10 08:27:33;;;;;;;2.73;0.77;;;;;;;1.73;74.75;101225.44;5015012;28;20453;-52
2022/03/10 08:30:00;;;;;;;3.40;2.07;;;;;;;2.00;74.01;101222.53;5014578;28;20546;-51
2022/03/10 08:32:26;;;;;;;0.20;0.10;;;;;;;2.13;72.71;101228.91;5014489;28;20469;-51
2022/03/10 08:34:53;;;;;;;0.20;0.10;;;;;;;2.30;72.16;101221.38;5014399;28;20904;-51
2022/03/10 08:37:20;;;;;;;0.20;0.10;;;;;;;2.59;70.98;101225.44;5014820;28;20453;-52
2022/03/10 08:39:46;;;;;;;0.30;0.30;;;;;;;2.51;70.81;101213.06;5014479;28;20445;-51
2022/03/10 08:42:16;;;;;;;0.30;0.20;;;;;;;2.65;70.26;101217.72;5014449;28;20591;-52
2022/03/10 08:44:42;;;;;;;0.20;0.10;;;;;;;2.86;69.54;101217.19;5014389;28;20448;-50
2022/03/10 08:47:14;;;;;;;1.53;1.53;;;;;;;3.33;68.19;101213.63;5008125;28;20446;-50
2022/03/10 08:49:40;;;;;;;4.83;2.00;;;;;;;3.16;68.63;101214.22;5010859;28;20628;-50
2022/03/10 08:52:07;;;;;;;0.20;0.10;;;;;;;3.35;68.02;101211.88;5014365;28;20525;-52
2022/03/10 08:54:34;;;;;;;0.20;0.10;;;;;;;3.55;67.35;101202.53;5014144;28;21008;-50
2022/03/10 08:57:00;;;;;;;0.20;0.10;;;;;;;3.89;67.23;101205.66;5014304;28;20456;-50
2022/03/10 08:59:27;;;;;;;2.10;0.93;;;;;;;3.68;67.70;101204.50;5014180;28;20819;-50
2022/03/10 09:01:54;;;;;;;0.20;0.10;;;;;;;4.00;67.11;101204.94;5012443;28;20998;-50
2022/03/10 09:04:23;;;;;;;0.20;0.13;;;;;;;3.87;67.69;101203.00;5014205;28;20452;-50
2022/03/10 09:06:50;;;;;;;0.30;0.30;;;;;;;3.66;69.05;101202.72;5014201;28;20508;-50
2022/03/10 09:09:17;;;;;;;0.20;0.20;;;;;;;4.11;68.38;101198.06;5007681;28;20491;-50
2022/03/10 09:11:43;;;;;;;0.20;0.20;;;;;;;4.66;65.74;101192.50;5013884;28;20531;-50
2022/03/10 09:14:10;;;;;;;0.53;0.50;;;;;;;4.72;65.68;101193.47;5013183;28;20977;-49
2022/03/10 09:16:37;;;;;;;0.20;0.10;;;;;;;4.95;65.16;101192.81;5012615;28;20484;-49
2022/03/10 09:19:03;;;;;;;1.43;1.33;;;;;;;5.18;65.10;101187.72;5011793;28;20444;-50
2022/03/10 09:21:30;;;;;;;0.27;0.20;;;;;;;5.16;64.20;101187.72;5013830;28;20507;-50
2022/03/10 09:23:57;;;;;;;0.20;0.20;;;;;;;5.43;64.12;101181.75;5013817;28;20480;-50
2022/03/10 09:26:23;;;;;;;1.13;1.13;;;;;;;5.29;63.84;101189.56;5013892;28;20522;-50
2022/03/10 09:28:50;;;;;;;0.20;0.10;;;;;;;5.49;63.52;101186.22;5013451;28;20516;-50
2022/03/10 09:31:17;;;;;;;0.20;0.10;;;;;;;5.56;63.03;101186.25;5013852;28;20472;-51
2022/03/10 09:33:45;;;;;;;0.30;0.30;;;;;;;5.81;62.48;101187.25;5013554;28;20453;-51
2022/03/10 09:36:13;;;;;;;1.80;1.60;;;;;;;6.16;62.04;101189.19;5013609;28;20452;-51
2022/03/10 09:38:40;;;;;;;1.43;1.33;;;;;;;6.04;62.16;101186.53;5013439;28;20453;-51
2022/03/10 09:41:07;;;;;;;0.20;0.20;;;;;;;6.27;60.76;101182.22;5013321;28;20473;-51
2022/03/10 09:43:35;;;;;;;0.30;0.20;;;;;;;6.44;60.72;101182.25;5013471;28;20484;-51
2022/03/10 09:46:02;;;;;;;0.30;0.20;;;;;;;6.44;60.52;101169.03;5013532;28;20456;-51
2022/03/10 09:48:30;;;;;;;0.20;0.20;;;;;;;6.71;59.81;101176.16;4997205;28;20453;-51
2022/03/10 09:50:57;;;;;;;0.30;0.17;;;;;;;6.78;59.37;101172.66;5013167;28;20472;-51
2022/03/10 09:53:26;;;;;;;0.60;0.57;;;;;;;6.92;59.72;101176.19;5013326;28;20449;-50
2022/03/10 09:55:54;;;;;;;1.60;1.50;;;;;;;6.97;59.36;101165.59;5013042;28;20445;-51
2022/03/10 09:58:21;;;;;;;2.20;2.10;;;;;;;7.16;59.91;101159.44;5013121;28;20449;-51
2022/03/10 10:00:48;;;;;;;0.30;0.20;;;;;;;7.26;60.45;101158.53;5012456;28;20473;-51
2022/03/10 10:03:15;;;;;;;0.30;0.20;;;;;;;7.46;60.15;101158.53;5013131;28;20456;-50
2022/03/10 10:05:42;;;;;;;0.30;0.30;;;;;;;7.46;59.46;101155.88;5012961;28;20841;-51
2022/03/10 10:08:14;;;;;;;0.60;0.50;;;;;;;7.66;59.69;101158.47;5011994;28;20972;-50
2022/03/10 10:10:45;;;;;;;0.30;0.10;;;;;;;7.67;59.91;101145.22;5009379;28;20497;-49
2022/03/10 10:13:43;;;;;;;0.50;0.40;;;;;;;7.96;58.88;101145.16;5012895;28;20536;-49
2022/03/10 10:16:14;;;;;;;0.33;0.33;;;;;;;7.99;57.88;101141.59;4989423;28;20449;-49
2022/03/10 10:18:41;;;;;;;0.83;0.60;;;;;;;8.26;58.26;101140.59;5009203;28;20452;-49
2022/03/10 10:21:19;;;;;;;1.50;1.50;;;;;;;8.38;57.40;101137.91;5012884;28;20480;-49
2022/03/10 10:23:47;;;;;;;0.30;0.20;;;;;;;8.61;56.97;101140.38;5012488;28;20444;-49
2022/03/10 10:26:14;;;;;;;0.47;0.47;;;;;;;8.75;56.98;101132.34;5011905;28;20472;-49
2022/03/10 10:28:47;;;;;;;0.63;0.57;;;;;;;8.85;57.23;101126.09;5012469;28;20449;-49
2022/03/10 10:31:14;;;;;;;2.03;1.70;;;;;;;9.00;56.30;101125.94;5012388;28;20480;-49
2022/03/10 10:33:54;;;;;;;0.33;0.33;;;;;;;8.97;56.66;101130.41;5012616;28;20460;-49
2022/03/10 10:36:25;;;;;;;0.30;0.27;;;;;;;9.16;56.85;101127.56;5012584;28;20449;-49
2022/03/10 10:38:57;;;;;;;0.30;0.20;;;;;;;9.29;56.36;101123.03;5012717;28;20483;-49
2022/03/10 10:41:28;;;;;;;0.30;0.30;;;;;;;9.37;56.38;101122.97;5012443;28;20464;-49
2022/03/10 10:44:02;;;;;;;8.33;0.87;;;;;;;9.58;55.99;101116.53;5012606;28;20989;-49
2022/03/10 10:46:35;;;;;;;1.23;1.23;;;;;;;9.65;55.80;101111.16;5012291;28;20455;-49
2022/03/10 10:49:12;;;;;;;2.03;1.60;;;;;;;9.74;55.87;101110.19;5004258;28;20488;-49
2022/03/10 10:51:43;;;;;;;1.10;1.03;;;;;;;10.02;55.15;101102.75;5012377;28;20472;-49
2022/03/10 10:54:24;;;;;;;4.83;0.67;;;;;;;10.17;55.12;101104.31;5012434;28;20444;-49
2022/03/10 10:56:54;;;;;;;0.30;0.20;;;;;;;10.31;54.44;101110.34;5012811;28;20454;-49
2022/03/10 10:59:40;;;;;;;0.53;0.53;;;;;;;10.38;53.78;101109.34;5012226;28;20448;-49
2022/03/10 11:02:10;;;;;;;0.30;0.20;;;;;;;10.36;53.56;101109.34;5011957;28;20492;-49
2022/03/10 11:04:38;;;;;;;1.30;1.30;;;;;;;10.68;52.81;101100.88;5012336;28;20494;-49
2022/03/10 11:07:08;;;;;;;0.30;0.20;;;;;;;10.77;52.65;101093.69;5012331;28;20456;-49
2022/03/10 11:09:35;;;;;;;0.60;0.60;;;;;;;10.79;51.79;101089.19;4992525;28;20496;-49
2022/03/10 11:12:02;;;;;;;9.90;2.43;;;;;;;10.85;50.18;101082.00;5012054;28;20480;-50
2022/03/10 11:14:30;;;;;;;0.47;0.43;;;;;;;10.94;49.03;101088.94;5012884;28;20522;-48
2022/03/10 11:16:58;;;;;;;3.77;2.57;;;;;;;11.51;45.66;101078.13;5008804;28;20454;-49
2022/03/10 11:19:26;;;;;;;2.93;1.53;;;;;;;11.68;43.92;101075.16;5012645;28;20503;-49
2022/03/10 11:22:26;;;;;;;0.53;0.53;;;;;;;11.70;43.57;101078.66;5012201;28;20514;-49
2022/03/10 11:25:20;;;;;;;0.40;0.30;;;;;;;11.90;44.39;101067.59;5012237;28;20445;-49
2022/03/10 11:28:02;;;;;;;0.30;0.20;;;;;;;11.97;42.93;101069.22;4992713;28;20472;-49
2022/03/10 11:30:30;;;;;;;1.07;0.97;;;;;;;12.08;44.10;101065.44;5011987;28;20538;-49
2022/03/10 11:33:12;;;;;;;0.97;0.97;;;;;;;12.32;43.03;101055.09;5012384;28;20456;-49
2022/03/10 11:35:41;;;;;;;1.30;1.13;;;;;;;12.38;41.88;101054.97;5012331;28;20448;-49